createdAt,value
2022-11-24T00:01:17.894Z,99374.59
2022-11-24T00:03:46.507Z,99378.25
2022-11-24T00:06:15.549Z,99375.44
2022-11-24T00:08:44.460Z,99368.28
2022-11-24T00:11:14.943Z,99364.06
2022-11-24T00:13:42.113Z,99371.31
2022-11-24T00:16:12.967Z,99372.94
2022-11-24T00:18:41.294Z,99366.06
2022-11-24T00:21:08.776Z,99371.88
2022-11-24T00:23:36.368Z,99371.00
2022-11-24T00:26:08.196Z,99378.53
2022-11-24T00:28:36.237Z,99376.06
2022-11-24T00:31:05.046Z,99370.66
2022-11-24T00:33:32.359Z,99376.22
2022-11-24T00:36:00.393Z,99387.09
2022-11-24T00:38:27.524Z,99387.84
2022-11-24T00:40:54.330Z,99382.63
2022-11-24T00:43:21.351Z,99375.63
2022-11-24T00:45:48.519Z,99387.69
2022-11-24T00:48:15.524Z,99379.81
2022-11-24T00:50:42.389Z,99394.69
2022-11-24T00:53:10.265Z,99392.69
2022-11-24T00:55:37.098Z,99405.69
2022-11-24T00:58:04.001Z,99402.38
2022-11-24T01:00:30.821Z,99401.78
2022-11-24T01:02:57.775Z,99408.91
2022-11-24T01:05:24.631Z,99398.84
2022-11-24T01:07:51.654Z,99411.44
2022-11-24T01:10:18.648Z,99413.50
2022-11-24T01:12:45.511Z,99411.50
2022-11-24T01:15:12.284Z,99407.06
2022-11-24T01:17:39.081Z,99409.53
2022-11-24T01:20:07.556Z,99396.53
2022-11-24T01:22:35.098Z,99404.50
2022-11-24T01:25:01.923Z,99406.19
2022-11-24T01:27:28.795Z,99409.81
2022-11-24T01:29:55.656Z,99404.59
2022-11-24T01:32:22.574Z,99403.28
2022-11-24T01:34:49.551Z,99405.25
2022-11-24T01:37:16.501Z,99407.09
2022-11-24T01:39:43.346Z,99406.34
2022-11-24T01:42:10.647Z,99399.56
2022-11-24T01:44:37.497Z,99404.66
2022-11-24T01:47:36.048Z,99398.06
2022-11-24T01:50:04.957Z,99406.03
2022-11-24T01:52:45.322Z,99409.41
2022-11-24T01:55:15.771Z,99418.16
2022-11-24T01:57:48.493Z,99439.78
2022-11-24T02:00:16.119Z,99445.22
2022-11-24T02:02:45.074Z,99435.97
2022-11-24T02:05:23.929Z,99436.09
2022-11-24T02:07:54.316Z,99451.34
2022-11-24T02:10:22.229Z,99437.06
2022-11-24T02:12:51.824Z,99445.63
2022-11-24T02:15:19.217Z,99450.47
2022-11-24T02:17:45.982Z,99450.31
2022-11-24T02:20:14.843Z,99449.28
2022-11-24T02:23:15.718Z,99455.50
2022-11-24T02:25:49.034Z,99456.44
2022-11-24T02:28:19.223Z,99463.53
2022-11-24T02:30:46.302Z,99470.22
2022-11-24T02:33:14.059Z,99468.16
2022-11-24T02:35:41.259Z,99469.50
2022-11-24T02:38:11.907Z,99471.50
2022-11-24T02:40:42.251Z,99469.81
2022-11-24T02:43:11.109Z,99474.53
2022-11-24T02:45:37.883Z,99479.13
2022-11-24T02:48:05.223Z,99491.44
2022-11-24T02:50:32.140Z,99494.94
2022-11-24T02:52:58.965Z,99494.41
2022-11-24T02:55:25.891Z,99503.91
2022-11-24T02:57:52.795Z,99506.22
2022-11-24T03:00:19.827Z,99511.38
2022-11-24T03:02:46.768Z,99509.25
2022-11-24T03:05:13.749Z,99514.53
2022-11-24T03:07:40.698Z,99514.69
2022-11-24T03:10:08.046Z,99508.09
2022-11-24T03:12:34.881Z,99512.38
2022-11-24T03:15:03.353Z,99519.16
2022-11-24T03:17:30.307Z,99508.41
2022-11-24T03:20:01.529Z,99512.38
2022-11-24T03:22:31.363Z,99524.28
2022-11-24T03:24:58.251Z,99530.56
2022-11-24T03:27:25.115Z,99521.47
2022-11-24T03:29:51.984Z,99522.78
2022-11-24T03:32:18.903Z,99522.63
2022-11-24T03:34:45.677Z,99528.91
2022-11-24T03:37:12.595Z,99517.47
2022-11-24T03:39:39.440Z,99514.00
2022-11-24T03:42:06.346Z,99518.34
2022-11-24T03:44:33.397Z,99519.50
2022-11-24T03:47:00.496Z,99516.81
2022-11-24T03:49:27.289Z,99522.81
2022-11-24T03:51:54.485Z,99526.75
2022-11-24T03:54:21.360Z,99528.59
2022-11-24T03:56:48.321Z,99524.78
2022-11-24T03:59:15.129Z,99524.09
2022-11-24T04:01:42.131Z,99528.41
2022-11-24T04:04:11.195Z,99532.72
2022-11-24T04:06:38.232Z,99544.28
2022-11-24T04:09:05.109Z,99550.56
2022-11-24T04:11:50.493Z,99564.50
2022-11-24T04:14:18.563Z,99567.28
2022-11-24T04:16:45.499Z,99575.75
2022-11-24T04:19:12.390Z,99578.41
2022-11-24T04:21:39.185Z,99579.72
2022-11-24T04:24:06.275Z,99582.53
2022-11-24T04:26:33.097Z,99597.09
2022-11-24T04:29:00.989Z,99586.31
2022-11-24T04:31:27.832Z,99591.78
2022-11-24T04:33:54.693Z,99589.78
2022-11-24T04:36:21.535Z,99591.28
2022-11-24T04:39:25.523Z,99597.25
2022-11-24T04:41:35.422Z,99606.53
2022-11-24T04:44:02.240Z,99595.06
2022-11-24T04:46:29.101Z,99601.38
2022-11-24T04:48:55.944Z,99608.84
2022-11-24T04:51:22.963Z,99613.66
2022-11-24T04:53:49.773Z,99615.47
2022-11-24T04:56:16.627Z,99626.06
2022-11-24T04:58:43.441Z,99625.38
2022-11-24T05:01:10.303Z,99631.31
2022-11-24T05:03:37.477Z,99633.50
2022-11-24T05:06:04.596Z,99636.31
2022-11-24T05:08:31.569Z,99638.47
2022-11-24T05:11:04.439Z,99638.00
2022-11-24T05:13:31.848Z,99631.69
2022-11-24T05:16:00.369Z,99633.34
2022-11-24T05:18:27.346Z,99640.28
2022-11-24T05:20:54.190Z,99635.59
2022-11-24T05:23:21.010Z,99636.63
2022-11-24T05:25:48.149Z,99642.56
2022-11-24T05:28:15.630Z,99643.25
2022-11-24T05:30:42.674Z,99659.59
2022-11-24T05:33:23.202Z,99657.56
2022-11-24T05:35:50.459Z,99668.69
2022-11-24T05:38:18.262Z,99667.56
2022-11-24T05:40:45.265Z,99675.03
2022-11-24T05:43:13.261Z,99683.69
2022-11-24T05:45:40.227Z,99680.69
2022-11-24T05:48:13.556Z,99683.84
2022-11-24T05:50:40.429Z,99680.38
2022-11-24T05:53:10.842Z,99683.00
2022-11-24T05:55:38.474Z,99687.63
2022-11-24T05:58:08.574Z,99689.63
2022-11-24T06:00:36.172Z,99689.94
2022-11-24T06:03:03.263Z,99693.28
2022-11-24T06:05:30.455Z,99688.16
2022-11-24T06:07:59.552Z,99686.00
2022-11-24T06:10:26.950Z,99684.19
2022-11-24T06:12:53.727Z,99686.66
2022-11-24T06:15:20.834Z,99690.81
2022-11-24T06:17:55.876Z,99695.94
2022-11-24T06:20:27.206Z,99697.94
2022-11-24T06:22:59.293Z,99704.72
2022-11-24T06:25:26.797Z,99703.91
2022-11-24T06:27:53.697Z,99718.31
2022-11-24T06:30:20.546Z,99720.97
2022-11-24T06:32:49.703Z,99723.59
2022-11-24T06:35:17.564Z,99743.50
2022-11-24T06:37:45.884Z,99742.63
2022-11-24T06:40:13.046Z,99739.19
2022-11-24T06:42:39.874Z,99733.38
2022-11-24T06:45:09.365Z,99738.19
2022-11-24T06:47:37.149Z,99747.31
2022-11-24T06:50:04.739Z,99754.59
2022-11-24T06:52:31.637Z,99748.94
2022-11-24T06:54:58.540Z,99762.88
2022-11-24T06:57:25.330Z,99767.34
2022-11-24T06:59:52.327Z,99774.00
2022-11-24T07:02:20.299Z,99789.56
2022-11-24T07:04:47.329Z,99789.22
2022-11-24T07:07:14.196Z,99788.69
2022-11-24T07:09:41.034Z,99788.97
2022-11-24T07:12:08.011Z,99798.75
2022-11-24T07:14:35.328Z,99801.28
2022-11-24T07:17:02.764Z,99803.75
2022-11-24T07:19:29.734Z,99804.25
2022-11-24T07:21:56.808Z,99800.78
2022-11-24T07:24:23.704Z,99810.59
2022-11-24T07:26:50.603Z,99819.44
2022-11-24T07:29:17.562Z,99820.44
2022-11-24T07:31:46.146Z,99819.13
2022-11-24T07:34:14.922Z,99832.69
2022-11-24T07:36:42.983Z,99830.25
2022-11-24T07:39:09.869Z,99829.91
2022-11-24T07:41:36.735Z,99828.06
2022-11-24T07:44:03.881Z,99842.13
2022-11-24T07:46:30.680Z,99829.44
2022-11-24T07:48:57.612Z,99841.31
2022-11-24T07:51:24.631Z,99830.78
2022-11-24T07:53:51.524Z,99827.97
2022-11-24T07:56:18.412Z,99827.88
2022-11-24T07:58:49.762Z,99835.19
2022-11-24T08:01:19.838Z,99830.53
2022-11-24T08:03:47.627Z,99845.41
2022-11-24T08:06:26.162Z,99849.06
2022-11-24T08:08:56.500Z,99852.19
2022-11-24T08:11:24.128Z,99855.28
2022-11-24T08:13:51.406Z,99857.72
2022-11-24T08:16:19.559Z,99852.81
2022-11-24T08:18:54.108Z,99862.16
2022-11-24T08:21:23.413Z,99851.97
2022-11-24T08:23:55.155Z,99861.75
2022-11-24T08:26:21.994Z,99853.47
2022-11-24T08:28:54.123Z,99844.19
2022-11-24T08:31:21.127Z,99844.19
2022-11-24T08:33:48.092Z,99843.34
2022-11-24T08:36:17.839Z,99849.88
2022-11-24T08:38:45.467Z,99853.38
2022-11-24T08:41:15.087Z,99850.75
2022-11-24T08:43:42.665Z,99839.25
2022-11-24T08:46:12.200Z,99846.50
2022-11-24T08:48:39.625Z,99852.03
2022-11-24T08:51:12.011Z,99849.81
2022-11-24T08:53:39.824Z,99856.63
2022-11-24T08:56:07.698Z,99857.00
2022-11-24T08:58:35.380Z,99861.63
2022-11-24T09:01:20.661Z,99854.16
2022-11-24T09:03:51.082Z,99862.63
2022-11-24T09:06:23.650Z,99851.78
2022-11-24T09:08:51.958Z,99861.44
2022-11-24T09:11:19.858Z,99870.53
2022-11-24T09:13:46.742Z,99870.00
2022-11-24T09:16:23.187Z,99875.84
2022-11-24T09:18:55.735Z,99878.78
2022-11-24T09:21:23.554Z,99877.88
2022-11-24T09:23:52.227Z,99883.59
2022-11-24T09:26:22.757Z,99881.75
2022-11-24T09:28:54.645Z,99881.09
2022-11-24T09:31:30.267Z,99885.00
2022-11-24T09:33:57.872Z,99881.81
2022-11-24T09:36:25.053Z,99884.69
2022-11-24T09:38:52.037Z,99882.13
2022-11-24T09:41:28.192Z,99879.34
2022-11-24T09:44:13.184Z,99884.72
2022-11-24T09:47:05.655Z,99885.38
2022-11-24T09:49:51.083Z,99882.25
2022-11-24T09:52:23.387Z,99880.78
2022-11-24T09:55:03.221Z,99880.13
2022-11-24T09:57:37.412Z,99885.22
2022-11-24T10:00:13.467Z,99896.66
2022-11-24T10:02:40.402Z,99888.53
2022-11-24T10:05:07.574Z,99887.31
2022-11-24T10:07:45.171Z,99888.59
2022-11-24T10:10:25.219Z,99889.59
2022-11-24T10:13:29.620Z,99893.38
2022-11-24T10:16:10.727Z,99879.94
2022-11-24T10:18:55.972Z,99891.00
2022-11-24T10:21:41.108Z,99886.28
2022-11-24T10:24:29.348Z,99892.38
2022-11-24T10:27:18.403Z,99890.03
2022-11-24T10:29:50.427Z,99893.59
2022-11-24T10:32:19.909Z,99895.44
2022-11-24T10:34:51.455Z,99889.94
2022-11-24T10:37:40.841Z,99891.41
2022-11-24T10:40:56.629Z,99889.38
2022-11-24T10:43:21.086Z,99893.25
2022-11-24T10:45:48.412Z,99882.84
2022-11-24T10:48:24.323Z,99882.66
2022-11-24T10:50:55.065Z,99886.63
2022-11-24T10:53:30.897Z,99882.19
2022-11-24T10:55:58.547Z,99886.56
2022-11-24T10:58:36.065Z,99881.00
2022-11-24T11:01:13.514Z,99880.09
2022-11-24T11:03:48.051Z,99886.50
2022-11-24T11:06:27.945Z,99879.88
2022-11-24T11:09:07.172Z,99890.16
2022-11-24T11:11:43.099Z,99883.53
2022-11-24T11:14:13.084Z,99888.66
2022-11-24T11:16:52.656Z,99886.00
2022-11-24T11:19:54.169Z,99893.06
2022-11-24T11:22:29.176Z,99888.78
2022-11-24T11:25:23.714Z,99891.69
2022-11-24T11:27:51.149Z,99882.47
2022-11-24T11:36:23.634Z,99883.38
2022-11-24T11:38:51.026Z,99878.66
2022-11-24T11:41:24.322Z,99870.84
2022-11-24T11:44:02.799Z,99868.38
2022-11-24T11:46:32.724Z,99863.66
2022-11-24T11:49:00.289Z,99870.88
2022-11-24T11:51:39.324Z,99875.44
2022-11-24T11:54:25.597Z,99879.56
2022-11-24T11:57:10.600Z,99875.03
2022-11-24T11:59:48.477Z,99877.09
2022-11-24T12:03:02.634Z,99884.91
2022-11-24T12:05:35.321Z,99875.25
2022-11-24T12:08:28.391Z,99888.03
2022-11-24T12:11:19.572Z,99880.59
2022-11-24T12:13:58.470Z,99880.19
2022-11-24T12:16:31.015Z,99887.59
2022-11-24T12:19:03.845Z,99881.81
2022-11-24T12:22:00.997Z,99885.53
2022-11-24T12:24:50.273Z,99869.84
2022-11-24T12:27:39.251Z,99874.56
2022-11-24T12:30:16.066Z,99876.63
2022-11-24T12:33:04.690Z,99873.50
2022-11-24T12:35:37.828Z,99874.53
2022-11-24T12:38:10.621Z,99877.19
2022-11-24T12:41:25.618Z,99869.34
2022-11-24T12:43:58.816Z,99872.03
2022-11-24T12:47:03.017Z,99870.31
2022-11-24T12:49:38.924Z,99877.97
2022-11-24T12:52:19.671Z,99865.56
2022-11-24T12:54:46.625Z,99862.47
2022-11-24T12:57:25.725Z,99866.25
2022-11-24T13:00:29.623Z,99869.94
2022-11-24T13:03:41.042Z,99858.19
2022-11-24T13:06:17.284Z,99857.50
2022-11-24T13:08:44.819Z,99859.09
2022-11-24T13:11:24.075Z,99854.97
2022-11-24T13:14:00.834Z,99858.84
2022-11-24T13:16:36.069Z,99852.47
2022-11-24T13:19:15.160Z,99857.59
2022-11-24T13:21:43.016Z,99856.97
2022-11-24T13:24:20.055Z,99860.09
2022-11-24T13:26:49.853Z,99857.59
2022-11-24T13:29:28.954Z,99858.03
2022-11-24T13:32:15.741Z,99869.38
2022-11-24T13:34:43.101Z,99852.22
2022-11-24T13:37:31.723Z,99863.97
2022-11-24T13:40:14.450Z,99857.13
2022-11-24T13:42:56.563Z,99846.41
2022-11-24T13:45:42.068Z,99851.16
2022-11-24T13:48:22.315Z,99847.47
2022-11-24T13:50:49.693Z,99844.25
2022-11-24T13:53:37.311Z,99856.44
2022-11-24T13:56:12.806Z,99846.13
2022-11-24T13:58:45.082Z,99843.47
2022-11-24T14:01:26.492Z,99850.31
2022-11-24T14:06:51.679Z,99857.50
2022-11-24T14:09:30.819Z,99858.00
2022-11-24T14:12:06.749Z,99859.63
2022-11-24T14:14:34.234Z,99864.84
2022-11-24T14:17:24.819Z,99866.91
2022-11-24T14:19:54.148Z,99864.88
2022-11-24T14:22:27.884Z,99870.66
2022-11-24T14:24:57.614Z,99873.13
2022-11-24T14:27:45.964Z,99867.72
2022-11-24T14:30:13.753Z,99861.97
2022-11-24T14:32:40.737Z,99871.69
2022-11-24T14:35:24.132Z,99875.22
2022-11-24T14:37:51.188Z,99872.53
2022-11-24T14:40:38.071Z,99874.63
2022-11-24T14:43:15.359Z,99876.06
2022-11-24T14:45:58.368Z,99881.41
2022-11-24T14:48:36.529Z,99882.66
2022-11-24T14:51:14.766Z,99886.34
2022-11-24T14:53:45.173Z,99884.31
2022-11-24T14:56:38.492Z,99885.31
2022-11-24T14:59:21.553Z,99892.13
2022-11-24T15:01:48.614Z,99888.84
2022-11-24T15:04:32.317Z,99895.44
2022-11-24T15:07:14.200Z,99891.13
2022-11-24T15:09:53.186Z,99893.34
2022-11-24T15:12:39.914Z,99898.25
2022-11-24T15:15:13.931Z,99903.78
2022-11-24T15:17:46.903Z,99904.78
2022-11-24T15:20:26.615Z,99908.09
2022-11-24T15:23:12.400Z,99912.75
2022-11-24T15:25:39.461Z,99924.03
2022-11-24T15:28:06.245Z,99913.75
2022-11-24T15:30:35.555Z,99910.84
2022-11-24T15:33:02.898Z,99924.69
2022-11-24T15:35:32.256Z,99928.16
2022-11-24T15:37:59.471Z,99936.25
2022-11-24T15:40:26.320Z,99932.00
2022-11-24T15:42:59.643Z,99939.44
2022-11-24T15:45:30.359Z,99945.34
2022-11-24T15:47:57.181Z,99950.84
2022-11-24T15:50:24.097Z,99956.16
2022-11-24T15:52:51.295Z,99948.88
2022-11-24T15:55:20.568Z,99967.94
2022-11-24T15:57:48.081Z,99958.84
2022-11-24T16:00:22.580Z,99950.19
2022-11-24T16:02:50.404Z,99955.16
2022-11-24T16:05:18.029Z,99964.44
2022-11-24T16:07:44.981Z,99961.34
2022-11-24T16:10:25.934Z,99961.13
2022-11-24T16:12:52.915Z,99966.47
2022-11-24T16:15:19.736Z,99959.81
2022-11-24T16:17:47.003Z,99972.22
2022-11-24T16:20:14.413Z,99968.56
2022-11-24T16:22:41.895Z,99969.13
2022-11-24T16:25:09.353Z,99974.53
2022-11-24T16:27:36.297Z,99974.38
2022-11-24T16:30:03.527Z,99977.50
2022-11-24T16:32:30.385Z,99976.91
2022-11-24T16:34:57.481Z,99982.06
2022-11-24T16:37:24.566Z,99982.47
2022-11-24T16:39:51.413Z,99998.47
2022-11-24T16:42:18.355Z,99992.69
2022-11-24T16:44:45.179Z,99996.13
2022-11-24T16:47:13.127Z,99991.19
2022-11-24T16:49:40.048Z,99997.09
2022-11-24T16:52:08.637Z,100003.91
2022-11-24T16:54:35.736Z,99995.38
2022-11-24T16:57:02.702Z,99996.28
2022-11-24T16:59:29.543Z,99986.75
2022-11-24T17:01:56.471Z,99998.97
2022-11-24T17:04:23.570Z,100006.25
2022-11-24T17:06:51.161Z,100007.63
2022-11-24T17:09:19.023Z,100002.50
2022-11-24T17:11:46.042Z,100015.97
2022-11-24T17:14:13.143Z,100018.84
2022-11-24T17:16:40.061Z,100014.59
2022-11-24T17:19:06.938Z,100014.66
2022-11-24T17:21:33.797Z,100015.72
2022-11-24T17:24:05.455Z,100018.19
2022-11-24T17:26:33.707Z,100018.59
2022-11-24T17:29:00.554Z,100020.00
2022-11-24T17:31:40.248Z,100026.34
2022-11-24T17:34:08.159Z,100034.84
2022-11-24T17:36:35.254Z,100039.78
2022-11-24T17:39:11.221Z,100043.28
2022-11-24T17:41:38.196Z,100042.69
2022-11-24T17:44:06.328Z,100042.44
2022-11-24T17:46:33.479Z,100043.84
2022-11-24T17:49:00.387Z,100044.81
2022-11-24T17:51:27.572Z,100041.84
2022-11-24T17:53:55.788Z,100045.00
2022-11-24T17:56:24.931Z,100040.47
2022-11-24T17:58:56.462Z,100055.66
2022-11-24T18:01:24.503Z,100053.75
2022-11-24T18:03:53.706Z,100066.84
2022-11-24T18:06:24.248Z,100060.88
2022-11-24T18:08:51.138Z,100074.84
2022-11-24T18:11:24.705Z,100074.59
2022-11-24T18:14:00.558Z,100074.69
2022-11-24T18:16:31.249Z,100073.63
2022-11-24T18:19:10.128Z,100079.94
2022-11-24T18:21:39.542Z,100085.00
2022-11-24T18:24:07.782Z,100078.47
2022-11-24T18:26:34.728Z,100083.41
2022-11-24T18:29:01.594Z,100074.63
2022-11-24T18:31:29.666Z,100090.28
2022-11-24T18:33:56.998Z,100086.53
2022-11-24T18:36:29.942Z,100090.22
2022-11-24T18:38:57.807Z,100094.91
2022-11-24T18:41:24.680Z,100097.91
2022-11-24T18:43:51.604Z,100110.53
2022-11-24T18:46:18.879Z,100103.31
2022-11-24T18:48:46.387Z,100101.97
2022-11-24T18:51:16.464Z,100105.59
2022-11-24T18:53:44.043Z,100103.09
2022-11-24T18:56:16.129Z,100117.53
2022-11-24T18:58:43.765Z,100118.28
2022-11-24T19:01:16.806Z,100128.59
2022-11-24T19:03:48.944Z,100124.63
2022-11-24T19:06:29.011Z,100123.66
2022-11-24T19:08:56.254Z,100132.22
2022-11-24T19:11:28.539Z,100135.72
2022-11-24T19:13:56.789Z,100117.66
2022-11-24T19:16:24.650Z,100127.13
2022-11-24T19:18:54.228Z,100129.44
2022-11-24T19:21:22.638Z,100128.69
2022-11-24T19:23:50.221Z,100117.47
2022-11-24T19:26:17.448Z,100122.66
2022-11-24T19:28:44.727Z,100114.75
2022-11-24T19:31:13.668Z,100130.47
2022-11-24T19:33:41.404Z,100131.94
2022-11-24T19:36:12.586Z,100123.00
2022-11-24T19:38:39.574Z,100120.97
2022-11-24T19:41:11.930Z,100133.41
2022-11-24T19:43:39.795Z,100138.22
2022-11-24T19:46:11.860Z,100134.03
2022-11-24T19:48:41.512Z,100136.66
2022-11-24T19:51:11.988Z,100161.16
2022-11-24T19:53:39.303Z,100145.94
2022-11-24T19:56:08.442Z,100162.97
2022-11-24T19:58:35.935Z,100166.13
2022-11-24T20:01:20.512Z,100149.84
2022-11-24T20:03:53.234Z,100156.53
2022-11-24T20:06:20.071Z,100148.53
2022-11-24T20:08:46.849Z,100155.00
2022-11-24T20:11:19.518Z,100164.31
2022-11-24T20:13:47.171Z,100154.44
2022-11-24T20:16:20.093Z,100157.31
2022-11-24T20:18:48.072Z,100166.06
2022-11-24T20:21:20.035Z,100163.03
2022-11-24T20:23:53.622Z,100175.91
2022-11-24T20:26:23.215Z,100187.41
2022-11-24T20:28:54.305Z,100187.25
2022-11-24T20:31:30.645Z,100203.53
2022-11-24T20:33:59.051Z,100198.22
2022-11-24T20:36:28.869Z,100194.50
2022-11-24T20:38:56.631Z,100197.38
2022-11-24T20:41:26.392Z,100197.72
2022-11-24T20:43:54.668Z,100198.75
2022-11-24T20:46:24.186Z,100195.91
2022-11-24T20:48:51.890Z,100211.66
2022-11-24T20:51:21.764Z,100217.63
2022-11-24T20:53:49.985Z,100213.22
2022-11-24T20:56:22.170Z,100214.59
2022-11-24T20:58:52.719Z,100210.53
2022-11-24T21:01:25.053Z,100216.50
2022-11-24T21:03:57.015Z,100209.69
2022-11-24T21:06:24.164Z,100216.78
2022-11-24T21:08:51.335Z,100221.22
2022-11-24T21:11:19.563Z,100223.50
2022-11-24T21:13:47.831Z,100226.34
2022-11-24T21:16:20.642Z,100229.03
2022-11-24T21:18:53.315Z,100219.38
2022-11-24T21:21:21.988Z,100225.63
2022-11-24T21:23:49.497Z,100220.22
2022-11-24T21:26:17.563Z,100222.06
2022-11-24T21:28:46.734Z,100223.81
2022-11-24T21:31:16.624Z,100216.09
2022-11-24T21:33:45.611Z,100222.50
2022-11-24T21:36:14.869Z,100214.63
2022-11-24T21:38:42.832Z,100222.91
2022-11-24T21:41:11.763Z,100224.25
2022-11-24T21:43:38.851Z,100224.94
2022-11-24T21:46:07.957Z,100227.69
2022-11-24T21:48:36.110Z,100227.69
2022-11-24T21:51:04.874Z,100234.78
2022-11-24T21:53:34.733Z,100239.66
2022-11-24T21:56:05.587Z,100244.00
2022-11-24T21:58:33.681Z,100256.44
2022-11-24T22:01:10.538Z,100251.41
2022-11-24T22:03:37.716Z,100251.91
2022-11-24T22:06:04.933Z,100255.50
2022-11-24T22:08:32.283Z,100266.13
2022-11-24T22:11:10.408Z,100256.38
2022-11-24T22:13:37.299Z,100266.44
2022-11-24T22:16:12.415Z,100253.75
2022-11-24T22:18:41.310Z,100263.13
2022-11-24T22:21:11.738Z,100264.97
2022-11-24T22:23:38.640Z,100261.81
2022-11-24T22:26:07.921Z,100273.78
2022-11-24T22:28:36.415Z,100270.63
2022-11-24T22:31:08.378Z,100277.13
2022-11-24T22:33:35.341Z,100278.50
2022-11-24T22:36:02.964Z,100279.88
2022-11-24T22:38:31.885Z,100279.91
2022-11-24T22:41:25.178Z,100282.44
2022-11-24T22:43:52.023Z,100295.75
2022-11-24T22:46:21.497Z,100286.25
2022-11-24T22:48:49.934Z,100285.94
2022-11-24T22:51:31.505Z,100288.41
2022-11-24T22:54:00.691Z,100284.56
2022-11-24T22:56:28.323Z,100288.59
2022-11-24T22:58:55.181Z,100294.25
2022-11-24T23:01:24.526Z,100287.94
2022-11-24T23:03:54.629Z,100292.59
2022-11-24T23:06:27.853Z,100299.25
2022-11-24T23:08:55.596Z,100297.41
2022-11-24T23:11:31.668Z,100300.75
2022-11-24T23:14:02.558Z,100302.09
2022-11-24T23:16:29.876Z,100302.28
2022-11-24T23:18:57.449Z,100303.75
2022-11-24T23:21:29.351Z,100301.91
2022-11-24T23:23:56.801Z,100305.41
2022-11-24T23:26:27.227Z,100306.56
2022-11-24T23:28:54.389Z,100314.06
2022-11-24T23:31:24.384Z,100315.22
2022-11-24T23:33:51.363Z,100316.38
2022-11-24T23:36:20.141Z,100308.25
2022-11-24T23:38:47.943Z,100313.38
2022-11-24T23:41:18.092Z,100316.56
2022-11-24T23:43:45.024Z,100318.72
2022-11-24T23:46:18.227Z,100323.72
2022-11-24T23:48:45.582Z,100330.53
2022-11-24T23:51:17.741Z,100333.34
2022-11-24T23:53:45.296Z,100340.31
2022-11-24T23:56:14.651Z,100335.34
2022-11-24T23:58:41.867Z,100339.69
